<?xml version="1.0" encoding="UTF-8"?>
<gpx version="1.0" creator="GpsPrune v18 activityworkshop.net"
 xmlns:xsi="http://www.w3.org/2001/XMLSchema-instance"
 xmlns="http://www.topografix.com/GPX/1/0" xsi:schemaLocation="http://www.topografix.com/GPX/1/0 http://www.topografix.com/GPX/1/0/gpx.xsd">

	<desc>Export from GpsPrune</desc>
	<trk>
		<name>GpsPruneTrack</name>
		<number>1</number>
		<trkseg>
			<trkpt lat="43.31117900" lon="3.47870300">
				<ele>16.1</ele>
				<time>2016-09-13T12:40:28Z</time>
			</trkpt>
			<trkpt lat="43.31117500" lon="3.47873800">
				<ele>16.1</ele>
				<time>2016-09-13T12:40:29Z</time>
			</trkpt>
			<trkpt lat="43.31117000" lon="3.47877200">
				<ele>16.1</ele>
				<time>2016-09-13T12:40:30Z</time>
			</trkpt>
			<trkpt lat="43.31116500" lon="3.47881200">
				<ele>16.0</ele>
				<time>2016-09-13T12:40:31Z</time>
			</trkpt>
			<trkpt lat="43.31115900" lon="3.47885400">
				<ele>15.9</ele>
				<time>2016-09-13T12:40:32Z</time>
			</trkpt>
			<trkpt lat="43.31115300" lon="3.47889500">
				<ele>15.9</ele>
				<time>2016-09-13T12:40:33Z</time>
			</trkpt>
			<trkpt lat="43.31114800" lon="3.47893500">
				<ele>16.0</ele>
				<time>2016-09-13T12:40:34Z</time>
			</trkpt>
			<trkpt lat="43.31114200" lon="3.47897700">
				<ele>16.0</ele>
				<time>2016-09-13T12:40:35Z</time>
			</trkpt>
			<trkpt lat="43.31113500" lon="3.47902100">
				<ele>16.2</ele>
				<time>2016-09-13T12:40:36Z</time>
			</trkpt>
			<trkpt lat="43.31112800" lon="3.47906600">
				<ele>16.4</ele>
				<time>2016-09-13T12:40:37Z</time>
			</trkpt>
			<trkpt lat="43.31112100" lon="3.47911100">
				<ele>16.4</ele>
				<time>2016-09-13T12:40:38Z</time>
			</trkpt>
			<trkpt lat="43.31111400" lon="3.47915800">
				<ele>16.4</ele>
				<time>2016-09-13T12:40:39Z</time>
			</trkpt>
			<trkpt lat="43.31110600" lon="3.47920500">
				<ele>16.7</ele>
				<time>2016-09-13T12:40:40Z</time>
			</trkpt>
			<trkpt lat="43.31109900" lon="3.47925300">
				<ele>16.8</ele>
				<time>2016-09-13T12:40:41Z</time>
			</trkpt>
			<trkpt lat="43.31109300" lon="3.47930200">
				<ele>16.9</ele>
				<time>2016-09-13T12:40:42Z</time>
			</trkpt>
			<trkpt lat="43.31108500" lon="3.47934900">
				<ele>17.1</ele>
				<time>2016-09-13T12:40:43Z</time>
			</trkpt>
			<trkpt lat="43.31107800" lon="3.47939700">
				<ele>17.3</ele>
				<time>2016-09-13T12:40:44Z</time>
			</trkpt>
			<trkpt lat="43.31107300" lon="3.47944500">
				<ele>17.4</ele>
				<time>2016-09-13T12:40:45Z</time>
			</trkpt>
			<trkpt lat="43.31106700" lon="3.47949300">
				<ele>17.5</ele>
				<time>2016-09-13T12:40:46Z</time>
			</trkpt>
			<trkpt lat="43.31106000" lon="3.47954000">
				<ele>17.6</ele>
				<time>2016-09-13T12:40:47Z</time>
			</trkpt>
			<trkpt lat="43.31105400" lon="3.47958500">
				<ele>17.7</ele>
				<time>2016-09-13T12:40:48Z</time>
			</trkpt>
			<trkpt lat="43.31104900" lon="3.47962500">
				<ele>17.9</ele>
				<time>2016-09-13T12:40:49Z</time>
			</trkpt>
			<trkpt lat="43.31104600" lon="3.47966200">
				<ele>17.9</ele>
				<time>2016-09-13T12:40:50Z</time>
			</trkpt>
			<trkpt lat="43.31104100" lon="3.47969800">
				<ele>17.9</ele>
				<time>2016-09-13T12:40:51Z</time>
			</trkpt>
			<trkpt lat="43.31103500" lon="3.47973800">
				<ele>17.8</ele>
				<time>2016-09-13T12:40:52Z</time>
			</trkpt>
			<trkpt lat="43.31102900" lon="3.47977900">
				<ele>18.0</ele>
				<time>2016-09-13T12:40:53Z</time>
			</trkpt>
			<trkpt lat="43.31102500" lon="3.47981800">
				<ele>18.0</ele>
				<time>2016-09-13T12:40:54Z</time>
			</trkpt>
			<trkpt lat="43.31102000" lon="3.47985600">
				<ele>18.0</ele>
				<time>2016-09-13T12:40:55Z</time>
			</trkpt>
			<trkpt lat="43.31101700" lon="3.47989600">
				<ele>18.0</ele>
				<time>2016-09-13T12:40:56Z</time>
			</trkpt>
			<trkpt lat="43.31101400" lon="3.47993400">
				<ele>18.1</ele>
				<time>2016-09-13T12:40:57Z</time>
			</trkpt>
			<trkpt lat="43.31101200" lon="3.47997000">
				<ele>18.1</ele>
				<time>2016-09-13T12:40:58Z</time>
			</trkpt>
			<trkpt lat="43.31101300" lon="3.48000400">
				<ele>18.2</ele>
				<time>2016-09-13T12:40:59Z</time>
			</trkpt>
			<trkpt lat="43.31102000" lon="3.48003500">
				<ele>18.4</ele>
				<time>2016-09-13T12:41:00Z</time>
			</trkpt>
			<trkpt lat="43.31103200" lon="3.48005800">
				<ele>18.5</ele>
				<time>2016-09-13T12:41:01Z</time>
			</trkpt>
			<trkpt lat="43.31104400" lon="3.48007300">
				<ele>18.5</ele>
				<time>2016-09-13T12:41:02Z</time>
			</trkpt>
			<trkpt lat="43.31105200" lon="3.48009100">
				<ele>18.4</ele>
				<time>2016-09-13T12:41:03Z</time>
			</trkpt>
			<trkpt lat="43.31105200" lon="3.48011700">
				<ele>18.5</ele>
				<time>2016-09-13T12:41:04Z</time>
			</trkpt>
			<trkpt lat="43.31104700" lon="3.48014600">
				<ele>18.4</ele>
				<time>2016-09-13T12:41:05Z</time>
			</trkpt>
			<trkpt lat="43.31103700" lon="3.48017100">
				<ele>18.3</ele>
				<time>2016-09-13T12:41:06Z</time>
			</trkpt>
			<trkpt lat="43.31102000" lon="3.48018900">
				<ele>18.3</ele>
				<time>2016-09-13T12:41:07Z</time>
			</trkpt>
			<trkpt lat="43.31100000" lon="3.48021300">
				<ele>18.2</ele>
				<time>2016-09-13T12:41:08Z</time>
			</trkpt>
			<trkpt lat="43.31098500" lon="3.48024900">
				<ele>18.2</ele>
				<time>2016-09-13T12:41:09Z</time>
			</trkpt>
			<trkpt lat="43.31097500" lon="3.48029300">
				<ele>18.2</ele>
				<time>2016-09-13T12:41:10Z</time>
			</trkpt>
			<trkpt lat="43.31097000" lon="3.48033900">
				<ele>18.1</ele>
				<time>2016-09-13T12:41:11Z</time>
			</trkpt>
			<trkpt lat="43.31096500" lon="3.48038200">
				<ele>18.2</ele>
				<time>2016-09-13T12:41:12Z</time>
			</trkpt>
			<trkpt lat="43.31096100" lon="3.48042100">
				<ele>18.3</ele>
				<time>2016-09-13T12:41:13Z</time>
			</trkpt>
			<trkpt lat="43.31095400" lon="3.48046200">
				<ele>18.2</ele>
				<time>2016-09-13T12:41:14Z</time>
			</trkpt>
			<trkpt lat="43.31094400" lon="3.48050400">
				<ele>18.0</ele>
				<time>2016-09-13T12:41:15Z</time>
			</trkpt>
			<trkpt lat="43.31093600" lon="3.48054900">
				<ele>18.1</ele>
				<time>2016-09-13T12:41:16Z</time>
			</trkpt>
			<trkpt lat="43.31093000" lon="3.48059600">
				<ele>18.0</ele>
				<time>2016-09-13T12:41:17Z</time>
			</trkpt>
			<trkpt lat="43.31092500" lon="3.48064100">
				<ele>18.1</ele>
				<time>2016-09-13T12:41:18Z</time>
			</trkpt>
			<trkpt lat="43.31091900" lon="3.48068700">
				<ele>18.1</ele>
				<time>2016-09-13T12:41:19Z</time>
			</trkpt>
			<trkpt lat="43.31091300" lon="3.48073300">
				<ele>18.2</ele>
				<time>2016-09-13T12:41:20Z</time>
			</trkpt>
			<trkpt lat="43.31090600" lon="3.48077900">
				<ele>18.2</ele>
				<time>2016-09-13T12:41:21Z</time>
			</trkpt>
			<trkpt lat="43.31090000" lon="3.48082500">
				<ele>18.2</ele>
				<time>2016-09-13T12:41:22Z</time>
			</trkpt>
			<trkpt lat="43.31089400" lon="3.48087100">
				<ele>18.3</ele>
				<time>2016-09-13T12:41:23Z</time>
			</trkpt>
			<trkpt lat="43.31088900" lon="3.48091600">
				<ele>18.3</ele>
				<time>2016-09-13T12:41:24Z</time>
			</trkpt>
			<trkpt lat="43.31088300" lon="3.48096100">
				<ele>18.4</ele>
				<time>2016-09-13T12:41:25Z</time>
			</trkpt>
			<trkpt lat="43.31087800" lon="3.48100200">
				<ele>18.4</ele>
				<time>2016-09-13T12:41:26Z</time>
			</trkpt>
			<trkpt lat="43.31087300" lon="3.48104000">
				<ele>18.5</ele>
				<time>2016-09-13T12:41:27Z</time>
			</trkpt>
			<trkpt lat="43.31086900" lon="3.48107400">
				<ele>18.6</ele>
				<time>2016-09-13T12:41:28Z</time>
			</trkpt>
			<trkpt lat="43.31086500" lon="3.48110700">
				<ele>18.7</ele>
				<time>2016-09-13T12:41:29Z</time>
			</trkpt>
			<trkpt lat="43.31085800" lon="3.48114400">
				<ele>18.7</ele>
				<time>2016-09-13T12:41:30Z</time>
			</trkpt>
			<trkpt lat="43.31085300" lon="3.48118500">
				<ele>18.7</ele>
				<time>2016-09-13T12:41:31Z</time>
			</trkpt>
			<trkpt lat="43.31084800" lon="3.48122700">
				<ele>18.8</ele>
				<time>2016-09-13T12:41:32Z</time>
			</trkpt>
			<trkpt lat="43.31084300" lon="3.48126900">
				<ele>19.0</ele>
				<time>2016-09-13T12:41:33Z</time>
			</trkpt>
			<trkpt lat="43.31083800" lon="3.48131200">
				<ele>19.0</ele>
				<time>2016-09-13T12:41:34Z</time>
			</trkpt>
			<trkpt lat="43.31083300" lon="3.48135600">
				<ele>19.1</ele>
				<time>2016-09-13T12:41:35Z</time>
			</trkpt>
			<trkpt lat="43.31082800" lon="3.48140100">
				<ele>19.0</ele>
				<time>2016-09-13T12:41:36Z</time>
			</trkpt>
			<trkpt lat="43.31082200" lon="3.48144800">
				<ele>19.0</ele>
				<time>2016-09-13T12:41:37Z</time>
			</trkpt>
			<trkpt lat="43.31081500" lon="3.48149700">
				<ele>18.9</ele>
				<time>2016-09-13T12:41:38Z</time>
			</trkpt>
			<trkpt lat="43.31080900" lon="3.48154500">
				<ele>18.9</ele>
				<time>2016-09-13T12:41:39Z</time>
			</trkpt>
			<trkpt lat="43.31080400" lon="3.48158900">
				<ele>18.9</ele>
				<time>2016-09-13T12:41:40Z</time>
			</trkpt>
			<trkpt lat="43.31079900" lon="3.48163200">
				<ele>19.0</ele>
				<time>2016-09-13T12:41:41Z</time>
			</trkpt>
			<trkpt lat="43.31079300" lon="3.48167500">
				<ele>19.0</ele>
				<time>2016-09-13T12:41:42Z</time>
			</trkpt>
			<trkpt lat="43.31078600" lon="3.48172000">
				<ele>19.1</ele>
				<time>2016-09-13T12:41:43Z</time>
			</trkpt>
			<trkpt lat="43.31078000" lon="3.48176700">
				<ele>19.1</ele>
				<time>2016-09-13T12:41:44Z</time>
			</trkpt>
			<trkpt lat="43.31077600" lon="3.48181400">
				<ele>19.2</ele>
				<time>2016-09-13T12:41:45Z</time>
			</trkpt>
			<trkpt lat="43.31077100" lon="3.48186100">
				<ele>19.2</ele>
				<time>2016-09-13T12:41:46Z</time>
			</trkpt>
			<trkpt lat="43.31076500" lon="3.48190800">
				<ele>19.3</ele>
				<time>2016-09-13T12:41:47Z</time>
			</trkpt>
			<trkpt lat="43.31075900" lon="3.48195500">
				<ele>19.4</ele>
				<time>2016-09-13T12:41:48Z</time>
			</trkpt>
		</trkseg>
	</trk>
</gpx>
